»·PEaware :: N4139Q KSAN-KSBP

N4139Q :: KSAN-KSBP

FLIGHT INFORMATION

Flight Status: Arrived
Operator: Privately registered:
United States
More flights under this callsign
Pilot: Joey C. (6821)
Aircraft: BEECH AIRCRAFT PREMIER
(PRM1)
More flights by this aircraft type
Origin: KSAN San Diego Intl-Lindbergh
United States
Destination: KSBP San Luis Co Regl
United States
More flights between these airports :: More routes between these airports
Route: PADRZ2 IKAYE RZS CADAB
File this flight plan on PilotEdge
Remarks:
Altitude:
(Current/Filed)
20,000ft
Speed:
(Current/Filed)
400kts
Departed: 29-Jan-22 10:07 AM
Arrived: 29-Jan-22 10:52 AM
Distance/Time
Traveled:
228nm/0:45
Distance/Time
To Go:
Arrived

Flight Plot

Page will automatically refresh every two minutes.

Flight plan parsing failed; only flown route is shown


Map Options




Map Legend


Flown Route
Filed Route
Departure Airport
Arrival Airport
Navaid (VOR, NDB)
Fix

Horizontal Profiles

Position Reports

Time Latitude Longitude Heading Altitude Ground
Speed
29-Jan-22 09:56 32.733808 -117.179211 196 24ft 0kts
29-Jan-22 09:57 32.733808 -117.179211 196 24ft 0kts
29-Jan-22 09:58 32.733808 -117.179211 196 24ft 0kts
29-Jan-22 09:59 32.733808 -117.179211 196 24ft 0kts
29-Jan-22 10:00 32.733808 -117.179211 196 24ft 0kts
29-Jan-22 10:01 32.733808 -117.179211 196 24ft 0kts
29-Jan-22 10:02 32.733808 -117.179211 196 24ft 0kts
29-Jan-22 10:03 32.732659 -117.179801 182 24ft 11kts
29-Jan-22 10:04 32.731160 -117.175706 142 24ft 0kts
29-Jan-22 10:05 32.731160 -117.175706 142 24ft 0kts
29-Jan-22 10:06 32.730209 -117.175750 275 24ft 10kts
29-Jan-22 10:07 32.738443 -117.207537 291 674ft 196kts
29-Jan-22 10:08 32.767108 -117.261740 304 4529ft 205kts
29-Jan-22 10:09 32.799166 -117.318156 302 7995ft 214kts
29-Jan-22 10:10 32.836471 -117.375959 305 11036ft 229kts
29-Jan-22 10:10 32.869574 -117.427078 303 13373ft 240kts
29-Jan-22 10:12 32.920884 -117.507043 303 14974ft 300kts
29-Jan-22 10:13 32.976858 -117.594296 304 14971ft 359kts
29-Jan-22 10:14 33.039651 -117.692250 304 14966ft 379kts
29-Jan-22 10:15 33.114914 -117.781762 318 14963ft 387kts
29-Jan-22 10:15 33.183234 -117.851341 318 14961ft 386kts
29-Jan-22 10:16 33.259027 -117.938977 313 15916ft 365kts
29-Jan-22 10:18 33.329376 -118.023679 313 17905ft 350kts
29-Jan-22 10:19 33.396931 -118.104563 312 19880ft 339kts
29-Jan-22 10:19 33.452988 -118.171874 312 20215ft 370kts
29-Jan-22 10:20 33.529926 -118.264382 313 20219ft 403kts
29-Jan-22 10:21 33.609885 -118.360750 313 20220ft 412kts
29-Jan-22 10:22 33.690690 -118.458422 313 20220ft 412kts
29-Jan-22 10:24 33.783217 -118.570621 313 20218ft 412kts
29-Jan-22 10:24 33.847855 -118.649220 313 20215ft 411kts
29-Jan-22 10:25 33.928046 -118.746977 312 20212ft 411kts
29-Jan-22 10:26 34.008342 -118.845148 312 20212ft 412kts
29-Jan-22 10:27 34.088681 -118.943655 313 20212ft 412kts
29-Jan-22 10:28 34.161588 -119.048981 301 20210ft 411kts
29-Jan-22 10:29 34.219166 -119.166955 299 19717ft 399kts
29-Jan-22 10:30 34.273848 -119.280130 300 18199ft 382kts
29-Jan-22 10:31 34.326185 -119.388625 300 16684ft 359kts
29-Jan-22 10:32 34.374132 -119.488358 300 15168ft 332kts
29-Jan-22 10:33 34.419395 -119.582694 300 13661ft 317kts
29-Jan-22 10:34 34.462341 -119.672446 300 12434ft 302kts
29-Jan-22 10:35 34.504247 -119.759075 305 11222ft 293kts
29-Jan-22 10:36 34.561428 -119.827310 318 10027ft 287kts
29-Jan-22 10:37 34.620492 -119.891104 318 9010ft 277kts
29-Jan-22 10:38 34.676884 -119.952079 318 9004ft 275kts
29-Jan-22 10:39 34.734280 -120.014352 318 9009ft 278kts
29-Jan-22 10:40 34.792087 -120.077202 318 9006ft 279kts
29-Jan-22 10:41 34.849447 -120.139687 318 9001ft 279kts
29-Jan-22 10:42 34.903956 -120.199216 318 8989ft 250kts
29-Jan-22 10:43 34.953994 -120.253973 319 8989ft 237kts
29-Jan-22 10:44 35.002507 -120.307113 319 8990ft 232kts
29-Jan-22 10:45 35.050026 -120.365898 310 7942ft 249kts
29-Jan-22 10:46 35.093675 -120.430858 310 6649ft 247kts
29-Jan-22 10:47 35.136431 -120.493862 311 5335ft 231kts
29-Jan-22 10:48 35.182777 -120.545941 312 2874ft 210kts
29-Jan-22 10:49 35.210481 -120.592534 304 1292ft 147kts
29-Jan-22 10:50 35.230207 -120.628259 306 332ft 118kts
29-Jan-22 10:51 35.237542 -120.639860 28 219ft 5kts
29-Jan-22 10:52 35.236357 -120.636123 18 219ft 7kts

Navigation Log

Ident Type
Flight plan parsing failed, navigation log unavailable